Time;durP1;ratioP1;P1;durP2;ratioP2;P2;SDS_P1;SDS_P2;PMS_P1;PMS_P2;Temp;Humidity;BMP_temperature;BMP_pressure;BME280_temperature;BME280_humidity;BME280_pressure;Samples;Min_cycle;Max_cycle;Signal;HPM_P1;HPM_P2
2022/11/13 00:00:57;;;;;;;;;44.00;38.75;;;;;;;;5129982;27;11536;-80
2022/11/13 00:03:25;;;;;;;;;40.00;37.75;;;;;;;;5121846;27;11582;-82
2022/11/13 00:06:00;;;;;;;;;41.75;35.00;;;;;;;;5127933;27;11530;-80
2022/11/13 00:08:27;;;;;;;;;32.50;30.50;;;;;;;;5117295;27;11479;-81
2022/11/13 00:11:02;;;;;;;;;35.50;35.50;;;;;;;;5119039;27;11519;-80
2022/11/13 00:13:30;;;;;;;;;34.00;31.00;;;;;;;;5120044;27;11504;-81
2022/11/13 00:15:59;;;;;;;;;35.75;30.75;;;;;;;;5120124;27;11542;-81
2022/11/13 00:18:28;;;;;;;;;38.75;33.25;;;;;;;;5121840;27;11515;-82
2022/11/13 00:20:56;;;;;;;;;39.75;37.00;;;;;;;;5125846;27;11554;-81
2022/11/13 00:23:24;;;;;;;;;36.25;28.00;;;;;;;;5129022;27;11528;-82
2022/11/13 00:25:52;;;;;;;;;37.25;35.25;;;;;;;;5124320;27;11570;-82
2022/11/13 00:28:21;;;;;;;;;41.50;34.75;;;;;;;;5123900;27;11622;-82
2022/11/13 00:30:49;;;;;;;;;31.75;31.50;;;;;;;;5128928;27;11570;-81
2022/11/13 00:33:17;;;;;;;;;38.25;33.75;;;;;;;;5108532;27;11563;-81
2022/11/13 00:35:44;;;;;;;;;34.75;34.75;;;;;;;;5108972;27;11498;-81
2022/11/13 00:38:12;;;;;;;;;39.00;36.25;;;;;;;;5109148;27;11619;-82
2022/11/13 00:40:39;;;;;;;;;41.75;36.00;;;;;;;;5104593;27;11471;-80
2022/11/13 00:43:07;;;;;;;;;36.00;30.50;;;;;;;;5127925;27;11506;-82
2022/11/13 00:45:37;;;;;;;;;34.75;32.25;;;;;;;;5104834;27;11556;-80
2022/11/13 00:48:05;;;;;;;;;28.75;28.75;;;;;;;;5123978;27;11592;-81
2022/11/13 00:50:33;;;;;;;;;28.50;28.25;;;;;;;;5107443;27;11430;-81
2022/11/13 00:53:01;;;;;;;;;29.25;26.75;;;;;;;;5125454;27;11524;-81
2022/11/13 00:55:29;;;;;;;;;35.25;30.25;;;;;;;;5121555;27;11590;-81
2022/11/13 00:57:57;;;;;;;;;30.00;30.00;;;;;;;;5105173;27;11558;-80
2022/11/13 01:00:24;;;;;;;;;32.00;28.75;;;;;;;;5122562;27;11498;-81
2022/11/13 01:02:54;;;;;;;;;26.25;26.25;;;;;;;;5103943;27;11670;-81
2022/11/13 01:05:21;;;;;;;;;28.25;25.50;;;;;;;;5125986;27;11563;-81
2022/11/13 01:07:49;;;;;;;;;25.00;21.25;;;;;;;;5121649;27;11510;-80
2022/11/13 01:10:16;;;;;;;;;25.00;19.75;;;;;;;;5120241;27;11542;-80
2022/11/13 01:12:44;;;;;;;;;25.00;25.00;;;;;;;;5105010;27;11495;-80
2022/11/13 01:15:13;;;;;;;;;29.25;29.25;;;;;;;;5124098;27;12236;-80
2022/11/13 01:17:41;;;;;;;;;25.25;23.75;;;;;;;;5123959;27;11537;-81
2022/11/13 01:20:11;;;;;;;;;28.25;27.00;;;;;;;;5102970;27;11532;-80
2022/11/13 01:22:39;;;;;;;;;26.25;26.25;;;;;;;;5124015;27;11631;-79
2022/11/13 01:25:07;;;;;;;;;27.00;27.00;;;;;;;;5124012;27;11572;-80
2022/11/13 01:27:36;;;;;;;;;38.75;32.75;;;;;;;;5105029;27;11493;-80
2022/11/13 01:30:05;;;;;;;;;35.75;32.50;;;;;;;;5107599;27;11591;-80
2022/11/13 01:32:32;;;;;;;;;33.50;32.00;;;;;;;;5105324;27;12319;-80
2022/11/13 01:35:00;;;;;;;;;37.00;33.25;;;;;;;;5126603;27;11566;-80
2022/11/13 01:37:29;;;;;;;;;35.00;32.25;;;;;;;;5120754;27;11535;-80
2022/11/13 01:39:56;;;;;;;;;33.50;31.00;;;;;;;;5125199;27;11623;-81
2022/11/13 01:42:24;;;;;;;;;38.75;32.75;;;;;;;;5124719;27;11542;-81
2022/11/13 01:44:53;;;;;;;;;41.00;37.00;;;;;;;;5123899;27;11536;-82
2022/11/13 01:47:22;;;;;;;;;37.50;35.25;;;;;;;;5126597;27;11451;-82
2022/11/13 01:49:53;;;;;;;;;28.00;26.00;;;;;;;;5123664;27;11708;-81
2022/11/13 01:52:23;;;;;;;;;27.25;27.25;;;;;;;;5125579;27;11578;-81
2022/11/13 01:54:54;;;;;;;;;37.75;33.25;;;;;;;;5126855;27;11495;-81
2022/11/13 01:57:22;;;;;;;;;35.00;32.75;;;;;;;;5129402;27;11435;-81
2022/11/13 01:59:52;;;;;;;;;34.50;32.50;;;;;;;;5107363;27;11595;-81
2022/11/13 02:02:20;;;;;;;;;31.50;29.75;;;;;;;;5122891;27;11681;-81
2022/11/13 02:04:48;;;;;;;;;42.25;39.00;;;;;;;;5110115;27;11504;-81
2022/11/13 02:07:18;;;;;;;;;33.75;33.75;;;;;;;;5125579;27;11496;-81
2022/11/13 02:09:48;;;;;;;;;46.00;39.50;;;;;;;;5124427;27;11516;-80
2022/11/13 02:12:20;;;;;;;;;49.00;43.75;;;;;;;;5107902;27;11574;-81
2022/11/13 02:14:51;;;;;;;;;48.25;39.50;;;;;;;;5125970;27;11507;-80
2022/11/13 02:17:23;;;;;;;;;35.00;30.00;;;;;;;;5099079;27;11537;-81
2022/11/13 02:19:54;;;;;;;;;41.25;36.75;;;;;;;;5122646;27;11549;-81
2022/11/13 02:22:28;;;;;;;;;39.25;33.50;;;;;;;;5105757;27;11641;-81
2022/11/13 02:24:59;;;;;;;;;28.75;27.50;;;;;;;;5100289;27;11612;-82
2022/11/13 02:27:33;;;;;;;;;35.75;31.00;;;;;;;;5118674;27;11526;-81
2022/11/13 02:30:12;;;;;;;;;31.50;29.75;;;;;;;;5103769;27;11561;-82
2022/11/13 02:32:44;;;;;;;;;26.00;24.50;;;;;;;;5102891;27;11511;-81
2022/11/13 02:35:12;;;;;;;;;26.25;26.25;;;;;;;;5130332;27;11569;-80
2022/11/13 02:37:39;;;;;;;;;42.25;34.00;;;;;;;;5129792;27;11474;-80
2022/11/13 02:40:11;;;;;;;;;18.25;18.25;;;;;;;;5128737;27;11477;-81
2022/11/13 02:42:38;;;;;;;;;33.00;30.00;;;;;;;;5109908;27;11488;-82
2022/11/13 02:45:07;;;;;;;;;30.00;25.00;;;;;;;;5125019;27;11629;-80
2022/11/13 02:47:35;;;;;;;;;25.00;24.00;;;;;;;;5108739;27;11445;-81
2022/11/13 02:50:03;;;;;;;;;27.50;20.75;;;;;;;;5109904;27;11558;-81
2022/11/13 02:52:32;;;;;;;;;29.00;26.75;;;;;;;;5131881;27;11480;-80
2022/11/13 02:54:59;;;;;;;;;22.75;21.75;;;;;;;;5126980;27;11521;-80
2022/11/13 02:57:28;;;;;;;;;25.25;24.25;;;;;;;;5109424;27;11571;-81
2022/11/13 02:59:56;;;;;;;;;25.00;23.00;;;;;;;;5123654;27;11562;-81
2022/11/13 03:02:23;;;;;;;;;24.75;21.00;;;;;;;;5126340;27;12319;-81
2022/11/13 03:04:51;;;;;;;;;26.00;22.00;;;;;;;;5126371;27;11527;-80
2022/11/13 03:07:19;;;;;;;;;29.50;27.50;;;;;;;;5126413;27;11492;-87
2022/11/13 03:09:47;;;;;;;;;19.75;19.75;;;;;;;;5123893;27;11523;-80
2022/11/13 03:12:15;;;;;;;;;23.25;21.00;;;;;;;;5108138;27;11498;-81
2022/11/13 03:14:46;;;;;;;;;24.25;24.25;;;;;;;;5106747;27;11716;-80
2022/11/13 03:17:14;;;;;;;;;19.00;15.25;;;;;;;;5123865;27;11447;-80
2022/11/13 03:19:41;;;;;;;;;20.25;18.50;;;;;;;;5130097;27;11409;-80
2022/11/13 03:22:09;;;;;;;;;20.00;16.50;;;;;;;;5126120;27;11446;-80
2022/11/13 03:24:38;;;;;;;;;25.25;21.75;;;;;;;;5108600;27;11444;-82
2022/11/13 03:27:06;;;;;;;;;25.75;23.00;;;;;;;;5131693;27;12221;-81
2022/11/13 03:29:33;;;;;;;;;13.50;13.00;;;;;;;;5126548;27;11395;-81
2022/11/13 03:32:03;;;;;;;;;19.75;19.75;;;;;;;;5124606;27;11490;-80
2022/11/13 03:34:30;;;;;;;;;18.75;18.00;;;;;;;;5125756;27;11483;-81
2022/11/13 03:36:58;;;;;;;;;22.50;21.00;;;;;;;;5111069;27;11380;-80
2022/11/13 03:39:25;;;;;;;;;23.25;23.25;;;;;;;;5125994;27;12190;-81
2022/11/13 03:41:53;;;;;;;;;30.50;29.50;;;;;;;;5131525;27;11426;-81
2022/11/13 03:44:21;;;;;;;;;21.75;21.75;;;;;;;;5109686;27;11527;-81
2022/11/13 03:46:50;;;;;;;;;20.00;20.00;;;;;;;;5108690;27;11516;-81
2022/11/13 03:49:19;;;;;;;;;22.25;19.25;;;;;;;;5108092;27;11571;-80
2022/11/13 03:51:47;;;;;;;;;18.00;18.00;;;;;;;;5112839;27;11440;-81
2022/11/13 03:54:15;;;;;;;;;22.25;20.00;;;;;;;;5122750;27;11483;-82
2022/11/13 03:56:43;;;;;;;;;16.50;16.50;;;;;;;;5108960;27;11458;-80
2022/11/13 03:59:11;;;;;;;;;20.25;17.50;;;;;;;;5123652;27;11347;-80
2022/11/13 04:01:38;;;;;;;;;20.00;17.25;;;;;;;;5119033;27;11471;-80
2022/11/13 04:04:06;;;;;;;;;22.25;19.50;;;;;;;;5122087;27;11587;-81
2022/11/13 04:06:36;;;;;;;;;18.50;18.50;;;;;;;;5118775;27;11406;-81
2022/11/13 04:09:04;;;;;;;;;23.50;21.00;;;;;;;;5119553;27;11516;-80
2022/11/13 04:11:31;;;;;;;;;24.50;22.75;;;;;;;;5120645;27;11618;-81
2022/11/13 04:13:59;;;;;;;;;23.75;20.50;;;;;;;;5118083;27;11655;-80
2022/11/13 04:16:27;;;;;;;;;20.00;19.50;;;;;;;;5119059;27;11477;-80
2022/11/13 04:18:55;;;;;;;;;24.25;22.00;;;;;;;;5125069;27;11501;-80
2022/11/13 04:21:22;;;;;;;;;24.00;23.75;;;;;;;;5119437;27;11448;-80
2022/11/13 04:23:52;;;;;;;;;23.50;19.75;;;;;;;;5106041;27;11442;-80
2022/11/13 04:26:19;;;;;;;;;22.50;21.00;;;;;;;;5117175;27;11605;-81
2022/11/13 04:28:47;;;;;;;;;20.00;15.25;;;;;;;;5122658;27;11373;-81
2022/11/13 04:31:14;;;;;;;;;16.50;16.50;;;;;;;;5101174;27;11483;-81
2022/11/13 04:33:44;;;;;;;;;20.50;20.50;;;;;;;;5116622;27;11478;-80
2022/11/13 04:36:12;;;;;;;;;23.00;20.25;;;;;;;;5103179;27;11518;-80
2022/11/13 04:38:39;;;;;;;;;24.50;22.00;;;;;;;;5117817;27;11465;-81
2022/11/13 04:43:54;;;;;;;;;20.00;19.50;;;;;;;;5126273;27;11346;-81
2022/11/13 04:46:22;;;;;;;;;21.75;20.50;;;;;;;;5125287;27;11550;-81
2022/11/13 04:48:50;;;;;;;;;15.75;15.75;;;;;;;;5101988;27;11499;-80
2022/11/13 04:51:18;;;;;;;;;15.00;15.00;;;;;;;;5100399;27;11444;-80
2022/11/13 04:53:45;;;;;;;;;20.75;19.25;;;;;;;;5103278;27;11355;-80
2022/11/13 04:56:14;;;;;;;;;19.75;16.50;;;;;;;;5123017;27;11854;-80
2022/11/13 04:58:42;;;;;;;;;24.00;23.00;;;;;;;;5118428;27;11477;-81
2022/11/13 05:01:09;;;;;;;;;24.00;17.75;;;;;;;;5099829;27;11489;-80
2022/11/13 05:03:39;;;;;;;;;23.00;20.00;;;;;;;;5119576;27;11568;-80
2022/11/13 05:06:08;;;;;;;;;18.75;18.75;;;;;;;;5100225;27;11456;-81
2022/11/13 05:08:37;;;;;;;;;16.25;14.00;;;;;;;;5113142;27;11415;-81
2022/11/13 05:11:04;;;;;;;;;23.25;23.25;;;;;;;;5124496;27;11564;-81
2022/11/13 05:13:34;;;;;;;;;32.00;25.00;;;;;;;;5117605;27;11450;-81
2022/11/13 05:16:02;;;;;;;;;22.50;21.50;;;;;;;;5121151;27;11615;-80
2022/11/13 05:18:32;;;;;;;;;27.00;25.25;;;;;;;;5103545;27;11483;-81
2022/11/13 05:20:59;;;;;;;;;19.00;17.75;;;;;;;;5116955;27;11510;-80
2022/11/13 05:23:27;;;;;;;;;22.00;22.00;;;;;;;;5120264;27;11516;-81
2022/11/13 05:26:00;;;;;;;;;19.75;19.75;;;;;;;;5118616;27;11446;-81
2022/11/13 05:28:28;;;;;;;;;25.75;24.25;;;;;;;;5117455;27;11549;-81
2022/11/13 05:31:04;;;;;;;;;29.00;25.00;;;;;;;;5097222;27;11569;-81
2022/11/13 05:33:31;;;;;;;;;28.25;28.25;;;;;;;;5119144;27;12322;-81
2022/11/13 05:36:02;;;;;;;;;34.00;33.00;;;;;;;;5125844;27;11528;-81
2022/11/13 05:38:30;;;;;;;;;36.50;35.75;;;;;;;;5129686;27;11567;-81
2022/11/13 05:41:03;;;;;;;;;27.00;24.00;;;;;;;;5128753;27;11515;-81
2022/11/13 05:43:31;;;;;;;;;25.50;24.50;;;;;;;;5123678;27;11515;-81
2022/11/13 05:46:05;;;;;;;;;27.75;27.50;;;;;;;;5105356;27;11545;-82
2022/11/13 05:48:33;;;;;;;;;30.00;29.75;;;;;;;;5128181;27;11527;-82
2022/11/13 05:51:04;;;;;;;;;24.00;22.50;;;;;;;;5130607;27;11625;-82
2022/11/13 05:53:34;;;;;;;;;35.50;35.50;;;;;;;;5125929;27;11433;-81
2022/11/13 05:56:02;;;;;;;;;31.00;31.00;;;;;;;;5106436;27;11552;-81
2022/11/13 05:58:31;;;;;;;;;28.00;25.00;;;;;;;;5127702;27;11498;-81
2022/11/13 06:01:12;;;;;;;;;30.50;27.50;;;;;;;;5127149;27;11704;-81
2022/11/13 06:03:39;;;;;;;;;31.00;28.00;;;;;;;;5108747;27;11531;-80
2022/11/13 06:06:10;;;;;;;;;25.25;25.25;;;;;;;;5110518;27;11649;-81
2022/11/13 06:08:38;;;;;;;;;30.75;29.75;;;;;;;;5111885;27;11548;-81
2022/11/13 06:11:08;;;;;;;;;28.75;26.75;;;;;;;;5127060;27;11496;-82
2022/11/13 06:13:36;;;;;;;;;31.75;31.00;;;;;;;;5111497;27;11503;-81
2022/11/13 06:16:06;;;;;;;;;37.25;31.50;;;;;;;;5111060;27;11550;-81
2022/11/13 06:18:36;;;;;;;;;34.00;26.75;;;;;;;;5126344;27;11537;-81
2022/11/13 06:21:05;;;;;;;;;29.75;28.25;;;;;;;;5121715;27;11439;-81
2022/11/13 06:23:34;;;;;;;;;29.50;29.50;;;;;;;;5122208;27;11493;-80
2022/11/13 06:26:02;;;;;;;;;28.75;26.75;;;;;;;;5127109;27;11460;-81
2022/11/13 06:28:30;;;;;;;;;32.00;29.25;;;;;;;;5109938;27;11530;-80
2022/11/13 06:31:04;;;;;;;;;30.00;25.75;;;;;;;;5127556;27;11578;-82
2022/11/13 06:33:32;;;;;;;;;19.25;17.75;;;;;;;;5126050;27;11498;-80
2022/11/13 06:36:04;;;;;;;;;25.25;24.25;;;;;;;;5124487;27;11508;-80
2022/11/13 06:38:32;;;;;;;;;28.50;25.00;;;;;;;;5129389;27;11414;-81
2022/11/13 06:41:00;;;;;;;;;30.50;27.75;;;;;;;;5127290;27;11602;-81
2022/11/13 06:43:28;;;;;;;;;29.50;25.25;;;;;;;;5109845;27;11474;-81
2022/11/13 06:45:56;;;;;;;;;22.50;22.50;;;;;;;;5129246;27;11534;-81
2022/11/13 06:48:24;;;;;;;;;24.50;24.50;;;;;;;;5111124;27;11461;-81
2022/11/13 06:50:52;;;;;;;;;31.00;24.00;;;;;;;;5134301;27;11438;-80
2022/11/13 06:53:21;;;;;;;;;26.50;23.25;;;;;;;;5130567;27;11423;-82
2022/11/13 06:55:51;;;;;;;;;24.00;24.00;;;;;;;;5109576;27;11463;-81
2022/11/13 06:58:21;;;;;;;;;24.25;20.75;;;;;;;;5128393;27;11490;-80
2022/11/13 07:00:49;;;;;;;;;28.25;25.75;;;;;;;;5123939;27;11565;-79
2022/11/13 07:03:20;;;;;;;;;30.75;25.75;;;;;;;;5131777;27;11562;-79
2022/11/13 07:05:51;;;;;;;;;29.50;27.50;;;;;;;;5128435;27;11521;-80
2022/11/13 07:08:22;;;;;;;;;33.75;31.50;;;;;;;;5111723;27;11496;-80
2022/11/13 07:10:54;;;;;;;;;47.00;40.75;;;;;;;;5133421;27;11454;-81
2022/11/13 07:13:22;;;;;;;;;37.75;35.00;;;;;;;;5127486;27;11503;-81
2022/11/13 07:15:50;;;;;;;;;40.50;33.50;;;;;;;;5106749;27;11481;-80
2022/11/13 07:18:18;;;;;;;;;36.00;31.25;;;;;;;;5127572;27;11708;-81
2022/11/13 07:20:45;;;;;;;;;39.00;35.25;;;;;;;;5127344;27;11453;-81
2022/11/13 07:23:13;;;;;;;;;32.75;32.25;;;;;;;;5110220;27;11602;-81
2022/11/13 07:25:42;;;;;;;;;31.50;28.25;;;;;;;;5128158;27;11476;-81
2022/11/13 07:28:09;;;;;;;;;32.75;32.00;;;;;;;;5129861;27;11537;-80
2022/11/13 07:30:37;;;;;;;;;30.50;29.25;;;;;;;;5129384;27;11501;-80
2022/11/13 07:33:05;;;;;;;;;26.50;24.50;;;;;;;;5129698;27;11496;-81
2022/11/13 07:35:32;;;;;;;;;24.00;24.00;;;;;;;;5108779;27;11544;-80
2022/11/13 07:38:00;;;;;;;;;34.25;30.25;;;;;;;;5110300;27;11488;-80
2022/11/13 07:40:27;;;;;;;;;36.50;31.75;;;;;;;;5124254;27;11574;-80
2022/11/13 07:43:02;;;;;;;;;30.25;30.00;;;;;;;;5125285;27;11541;-80
2022/11/13 07:45:29;;;;;;;;;24.75;23.00;;;;;;;;5107702;27;11542;-80
2022/11/13 07:48:00;;;;;;;;;15.50;11.50;;;;;;;;5127903;27;11460;-81
2022/11/13 07:50:29;;;;;;;;;22.50;21.00;;;;;;;;5127374;27;11525;-81
2022/11/13 07:52:57;;;;;;;;;29.50;22.75;;;;;;;;5129618;27;11458;-82
2022/11/13 07:55:25;;;;;;;;;26.50;25.25;;;;;;;;5126617;27;11528;-82
2022/11/13 07:57:55;;;;;;;;;28.75;25.75;;;;;;;;5125434;27;11564;-80
2022/11/13 08:00:24;;;;;;;;;27.50;21.50;;;;;;;;5121873;27;11498;-80
2022/11/13 08:02:52;;;;;;;;;28.75;25.00;;;;;;;;5123896;27;11545;-76
2022/11/13 08:05:23;;;;;;;;;23.25;23.00;;;;;;;;5121273;27;11509;-73
2022/11/13 08:07:53;;;;;;;;;23.50;21.25;;;;;;;;5122234;27;11483;-74
2022/11/13 08:10:22;;;;;;;;;24.00;20.00;;;;;;;;5106822;27;11504;-73
2022/11/13 08:12:49;;;;;;;;;24.25;20.75;;;;;;;;5118712;27;11662;-73
2022/11/13 08:15:18;;;;;;;;;24.50;23.25;;;;;;;;5105774;27;11380;-72
2022/11/13 08:17:54;;;;;;;;;20.75;19.00;;;;;;;;5124474;27;11376;-72
2022/11/13 08:20:22;;;;;;;;;15.50;14.75;;;;;;;;5125584;27;11545;-73
2022/11/13 08:22:49;;;;;;;;;15.75;15.75;;;;;;;;5122847;27;11586;-73
2022/11/13 08:25:18;;;;;;;;;22.00;19.00;;;;;;;;5123538;27;11493;-72
2022/11/13 08:27:47;;;;;;;;;16.00;15.50;;;;;;;;5123719;27;11445;-73
2022/11/13 08:30:16;;;;;;;;;20.50;19.25;;;;;;;;5120433;27;11485;-73
2022/11/13 08:32:44;;;;;;;;;13.50;13.50;;;;;;;;5102219;27;11646;-74
2022/11/13 08:35:13;;;;;;;;;27.25;20.50;;;;;;;;5123879;27;11457;-74
2022/11/13 08:37:41;;;;;;;;;19.25;17.50;;;;;;;;5119047;27;11450;-70
2022/11/13 08:40:09;;;;;;;;;17.50;17.50;;;;;;;;5102521;27;11456;-73
2022/11/13 08:42:39;;;;;;;;;16.25;14.00;;;;;;;;5119901;27;11471;-73
2022/11/13 08:45:08;;;;;;;;;17.75;15.00;;;;;;;;5100897;27;11497;-72
2022/11/13 08:47:41;;;;;;;;;14.75;14.75;;;;;;;;5122907;27;11414;-73
2022/11/13 08:50:14;;;;;;;;;14.75;14.75;;;;;;;;5120330;27;11430;-73
2022/11/13 08:52:42;;;;;;;;;14.00;14.00;;;;;;;;5120210;27;11597;-73
2022/11/13 08:55:10;;;;;;;;;23.00;21.00;;;;;;;;5103775;27;11431;-74
2022/11/13 08:57:39;;;;;;;;;16.50;16.25;;;;;;;;5104439;27;11487;-73
2022/11/13 09:00:08;;;;;;;;;18.50;16.25;;;;;;;;5124112;27;11479;-73
2022/11/13 09:02:35;;;;;;;;;17.25;15.25;;;;;;;;5105073;27;11592;-74
2022/11/13 09:05:06;;;;;;;;;24.25;19.25;;;;;;;;5121163;27;11600;-73
2022/11/13 09:07:35;;;;;;;;;20.25;20.00;;;;;;;;5124455;27;11545;-74
2022/11/13 09:10:03;;;;;;;;;24.25;21.50;;;;;;;;5125282;27;11456;-74
2022/11/13 09:12:30;;;;;;;;;18.50;18.50;;;;;;;;5120565;27;11427;-75
2022/11/13 09:14:58;;;;;;;;;23.50;23.50;;;;;;;;5122490;27;11409;-74
2022/11/13 09:17:26;;;;;;;;;17.00;14.00;;;;;;;;5106665;27;12295;-73
2022/11/13 09:19:56;;;;;;;;;27.50;22.75;;;;;;;;5120521;27;11376;-74
2022/11/13 09:22:24;;;;;;;;;19.50;19.50;;;;;;;;5121733;27;11441;-74
2022/11/13 09:24:55;;;;;;;;;25.75;19.75;;;;;;;;5105058;27;11683;-74
2022/11/13 09:27:25;;;;;;;;;19.50;19.50;;;;;;;;5122187;27;11511;-74
2022/11/13 09:29:53;;;;;;;;;16.50;15.00;;;;;;;;5104622;27;11619;-74
2022/11/13 09:32:23;;;;;;;;;22.25;18.00;;;;;;;;5106269;27;11514;-74
2022/11/13 09:34:51;;;;;;;;;26.00;23.00;;;;;;;;5124884;27;11517;-73
2022/11/13 09:37:19;;;;;;;;;17.50;14.50;;;;;;;;5126149;27;11612;-74
2022/11/13 09:39:46;;;;;;;;;16.50;16.50;;;;;;;;5108032;27;11542;-74
2022/11/13 09:42:21;;;;;;;;;18.25;16.00;;;;;;;;5104131;27;11477;-73
2022/11/13 09:44:59;;;;;;;;;15.00;15.00;;;;;;;;5121257;27;12285;-74
2022/11/13 09:47:34;;;;;;;;;17.50;17.50;;;;;;;;5130063;27;11493;-73
2022/11/13 09:50:06;;;;;;;;;21.50;21.50;;;;;;;;5101755;27;11442;-73
2022/11/13 09:52:37;;;;;;;;;14.25;14.00;;;;;;;;5107378;27;11646;-73
2022/11/13 09:55:05;;;;;;;;;17.00;15.75;;;;;;;;5134858;27;11528;-73
2022/11/13 09:57:40;;;;;;;;;20.75;14.50;;;;;;;;5128776;27;11642;-73
2022/11/13 10:00:16;;;;;;;;;14.75;14.75;;;;;;;;5123963;27;11382;-73
2022/11/13 10:02:52;;;;;;;;;18.75;16.25;;;;;;;;5126809;27;11534;-73
2022/11/13 10:05:25;;;;;;;;;19.75;19.75;;;;;;;;5123481;27;11473;-74
2022/11/13 10:07:58;;;;;;;;;15.50;14.00;;;;;;;;5122543;27;11420;-74
2022/11/13 10:10:38;;;;;;;;;24.75;23.50;;;;;;;;5123107;27;11465;-74
2022/11/13 10:13:10;;;;;;;;;19.25;16.25;;;;;;;;5129391;27;11499;-75
2022/11/13 10:15:39;;;;;;;;;15.75;14.25;;;;;;;;5123461;27;11470;-72
2022/11/13 10:18:14;;;;;;;;;12.75;12.75;;;;;;;;5119138;27;11089;-76
2022/11/13 10:20:48;;;;;;;;;19.25;15.00;;;;;;;;5123589;27;11025;-73
2022/11/13 10:23:18;;;;;;;;;18.25;13.00;;;;;;;;5122379;27;11039;-73
2022/11/13 10:25:46;;;;;;;;;15.25;15.25;;;;;;;;5103755;27;10969;-74
2022/11/13 10:28:19;;;;;;;;;18.25;14.75;;;;;;;;5121658;27;10852;-75
2022/11/13 10:30:48;;;;;;;;;13.75;13.75;;;;;;;;5101607;27;10870;-75
2022/11/13 10:33:19;;;;;;;;;14.50;14.50;;;;;;;;5125614;27;10946;-75
2022/11/13 10:35:53;;;;;;;;;23.75;22.00;;;;;;;;5122616;27;11089;-79
2022/11/13 10:38:28;;;;;;;;;20.25;20.25;;;;;;;;5125448;27;11232;-76
2022/11/13 10:41:07;;;;;;;;;16.75;15.50;;;;;;;;5118960;27;11098;-76
2022/11/13 10:43:36;;;;;;;;;13.75;11.00;;;;;;;;5105393;27;11107;-75
2022/11/13 10:46:05;;;;;;;;;13.50;13.00;;;;;;;;5122255;27;10879;-75
2022/11/13 10:48:35;;;;;;;;;16.25;15.75;;;;;;;;5104188;27;11003;-75
2022/11/13 10:51:06;;;;;;;;;16.50;14.00;;;;;;;;5125539;27;10906;-75
2022/11/13 10:53:40;;;;;;;;;15.75;14.50;;;;;;;;5122732;27;10993;-76
2022/11/13 10:56:21;;;;;;;;;14.00;12.75;;;;;;;;5125181;27;11047;-74
2022/11/13 10:59:04;;;;;;;;;16.75;15.00;;;;;;;;5130018;27;10901;-80
2022/11/13 11:01:32;;;;;;;;;16.50;11.50;;;;;;;;5128159;27;10965;-78
2022/11/13 11:04:01;;;;;;;;;15.75;15.75;;;;;;;;5117095;27;11068;-80
2022/11/13 11:06:38;;;;;;;;;15.75;15.75;;;;;;;;5131613;27;10808;-81
2022/11/13 11:09:20;;;;;;;;;16.25;16.25;;;;;;;;5130937;27;11052;-77
2022/11/13 11:12:18;;;;;;;;;10.25;8.50;;;;;;;;5127581;27;10922;-78
2022/11/13 11:15:23;;;;;;;;;14.00;11.75;;;;;;;;5130129;27;10832;-75
2022/11/13 11:17:54;;;;;;;;;17.75;17.75;;;;;;;;5132853;27;10799;-79
2022/11/13 11:20:38;;;;;;;;;16.50;16.50;;;;;;;;5117469;27;10979;-79
2022/11/13 11:23:18;;;;;;;;;21.50;18.50;;;;;;;;5130520;27;11049;-79
2022/11/13 11:25:52;;;;;;;;;21.25;18.00;;;;;;;;5126903;27;10733;-78
2022/11/13 11:28:29;;;;;;;;;16.00;14.50;;;;;;;;5127416;27;10908;-81
2022/11/13 11:31:06;;;;;;;;;22.25;20.50;;;;;;;;5131400;27;10980;-79
2022/11/13 11:33:36;;;;;;;;;18.50;17.25;;;;;;;;5128957;27;11071;-79
2022/11/13 11:36:12;;;;;;;;;21.50;17.25;;;;;;;;5125037;27;10865;-74
2022/11/13 11:38:48;;;;;;;;;23.25;17.50;;;;;;;;5129338;27;11674;-78
2022/11/13 11:41:21;;;;;;;;;19.25;19.25;;;;;;;;5122649;27;10918;-79
2022/11/13 11:44:00;;;;;;;;;17.00;17.00;;;;;;;;5107252;27;10838;-79
2022/11/13 11:46:30;;;;;;;;;15.75;15.75;;;;;;;;5123915;27;10663;-80
2022/11/13 11:49:00;;;;;;;;;18.25;17.00;;;;;;;;5106239;27;11557;-80
2022/11/13 11:51:32;;;;;;;;;17.50;16.00;;;;;;;;5104761;27;10896;-76
2022/11/13 11:54:11;;;;;;;;;18.00;16.00;;;;;;;;5120750;27;11043;-79
2022/11/13 11:56:43;;;;;;;;;14.75;11.75;;;;;;;;5125192;27;10864;-78
2022/11/13 11:59:20;;;;;;;;;11.25;11.25;;;;;;;;5119216;27;10767;-78
2022/11/13 12:02:03;;;;;;;;;17.00;14.00;;;;;;;;5123331;27;10589;-76
2022/11/13 12:04:40;;;;;;;;;11.25;11.25;;;;;;;;5126067;27;10774;-79
2022/11/13 12:07:22;;;;;;;;;11.00;11.00;;;;;;;;5117664;27;10721;-79
2022/11/13 12:09:57;;;;;;;;;12.00;12.00;;;;;;;;5124909;27;10640;-81
2022/11/13 12:12:35;;;;;;;;;14.25;14.25;;;;;;;;5125361;27;10603;-79
2022/11/13 12:15:08;;;;;;;;;9.25;9.25;;;;;;;;5125083;27;10603;-83
2022/11/13 12:17:49;;;;;;;;;11.00;11.00;;;;;;;;5121325;27;10449;-80
2022/11/13 12:20:26;;;;;;;;;10.25;9.25;;;;;;;;5125241;27;10572;-76
2022/11/13 12:23:05;;;;;;;;;12.00;12.00;;;;;;;;5121471;27;10523;-74
2022/11/13 12:25:37;;;;;;;;;11.50;10.50;;;;;;;;5124520;27;11365;-74
2022/11/13 12:28:15;;;;;;;;;12.75;12.75;;;;;;;;5102491;27;10419;-72
2022/11/13 12:30:47;;;;;;;;;13.25;13.25;;;;;;;;5123515;27;10445;-73
2022/11/13 12:33:35;;;;;;;;;15.50;15.50;;;;;;;;5123517;27;10465;-73
2022/11/13 12:36:04;;;;;;;;;18.75;15.75;;;;;;;;5123523;27;11376;-74
2022/11/13 12:38:37;;;;;;;;;16.75;16.50;;;;;;;;5125255;27;10559;-73
2022/11/13 12:41:15;;;;;;;;;16.75;16.00;;;;;;;;5106083;27;10517;-75
2022/11/13 12:43:57;;;;;;;;;14.25;14.25;;;;;;;;5125197;27;10754;-74
2022/11/13 12:46:34;;;;;;;;;14.00;14.00;;;;;;;;5123557;27;10447;-74
2022/11/13 12:49:14;;;;;;;;;15.50;13.25;;;;;;;;5105983;27;11362;-74
2022/11/13 12:51:53;;;;;;;;;17.50;15.25;;;;;;;;5123993;27;10403;-74
2022/11/13 12:54:27;;;;;;;;;16.00;13.00;;;;;;;;5117508;27;10468;-74
2022/11/13 12:57:04;;;;;;;;;16.25;13.25;;;;;;;;5123181;27;10426;-73
2022/11/13 12:59:34;;;;;;;;;12.50;12.50;;;;;;;;5123067;27;10271;-74
2022/11/13 13:02:18;;;;;;;;;15.00;12.75;;;;;;;;5135169;27;10257;-73
2022/11/13 13:04:58;;;;;;;;;15.25;15.25;;;;;;;;5123047;27;10363;-74
2022/11/13 13:07:41;;;;;;;;;13.25;12.25;;;;;;;;5115912;27;10291;-74
2022/11/13 13:10:16;;;;;;;;;12.50;12.50;;;;;;;;5123455;27;10019;-74
2022/11/13 13:12:52;;;;;;;;;19.00;19.00;;;;;;;;5122737;27;10170;-73
2022/11/13 13:15:33;;;;;;;;;12.75;12.00;;;;;;;;5103538;27;10199;-74
2022/11/13 13:18:06;;;;;;;;;11.75;10.50;;;;;;;;5124874;27;10239;-73
2022/11/13 13:20:38;;;;;;;;;13.25;12.00;;;;;;;;5094093;27;10878;-74
2022/11/13 13:23:06;;;;;;;;;13.25;11.75;;;;;;;;5121160;27;9989;-73
2022/11/13 13:25:35;;;;;;;;;14.50;14.50;;;;;;;;5125905;27;10988;-74
2022/11/13 13:28:15;;;;;;;;;17.25;16.25;;;;;;;;5106250;27;10096;-72
2022/11/13 13:30:52;;;;;;;;;14.50;13.00;;;;;;;;5122918;27;10074;-73
2022/11/13 13:33:25;;;;;;;;;13.00;12.50;;;;;;;;5122001;27;10155;-72
2022/11/13 13:36:02;;;;;;;;;12.50;12.50;;;;;;;;5111277;27;10252;-73
2022/11/13 13:38:32;;;;;;;;;13.00;12.25;;;;;;;;5116026;27;10510;-74
2022/11/13 13:41:19;;;;;;;;;11.25;11.25;;;;;;;;5122945;27;10281;-71
2022/11/13 13:43:59;;;;;;;;;15.50;13.50;;;;;;;;5118796;27;11088;-73
2022/11/13 13:46:29;;;;;;;;;12.00;12.00;;;;;;;;5125035;27;10450;-73
2022/11/13 13:49:03;;;;;;;;;15.75;15.75;;;;;;;;5116596;27;10469;-73
2022/11/13 13:51:37;;;;;;;;;25.00;21.50;;;;;;;;5123599;27;10593;-73
2022/11/13 13:54:08;;;;;;;;;22.50;21.00;;;;;;;;5124574;27;10750;-73
2022/11/13 13:56:40;;;;;;;;;18.00;16.25;;;;;;;;5118760;27;10859;-72
2022/11/13 13:59:15;;;;;;;;;18.00;13.75;;;;;;;;5121850;27;10422;-74
2022/11/13 14:01:52;;;;;;;;;13.00;12.00;;;;;;;;5116597;27;10529;-74
2022/11/13 14:04:22;;;;;;;;;15.50;15.50;;;;;;;;5119329;27;10542;-75
2022/11/13 14:06:52;;;;;;;;;18.50;15.25;;;;;;;;5122308;27;10464;-74
2022/11/13 14:09:21;;;;;;;;;16.50;16.50;;;;;;;;5119546;27;10653;-75
2022/11/13 14:11:56;;;;;;;;;12.25;12.25;;;;;;;;5117833;27;10632;-74
2022/11/13 14:14:24;;;;;;;;;21.25;20.00;;;;;;;;5122654;27;10597;-74
2022/11/13 14:16:54;;;;;;;;;21.00;20.25;;;;;;;;5126008;27;10630;-74
2022/11/13 14:19:21;;;;;;;;;21.00;19.25;;;;;;;;5121949;27;10799;-74
2022/11/13 14:21:52;;;;;;;;;13.75;13.75;;;;;;;;5120143;27;10882;-73
2022/11/13 14:24:22;;;;;;;;;17.25;17.25;;;;;;;;5125901;27;10538;-73
2022/11/13 14:26:53;;;;;;;;;16.00;14.50;;;;;;;;5122041;27;10660;-76
2022/11/13 14:29:30;;;;;;;;;15.75;15.75;;;;;;;;5125384;27;10646;-74
2022/11/13 14:32:04;;;;;;;;;17.00;17.00;;;;;;;;5128448;27;11312;-73
2022/11/13 14:34:32;;;;;;;;;19.75;19.75;;;;;;;;5123462;27;10536;-71
2022/11/13 14:37:19;;;;;;;;;18.25;18.00;;;;;;;;5128096;27;10650;-72
2022/11/13 14:39:48;;;;;;;;;14.00;9.75;;;;;;;;5120149;27;10525;-72